Zim Vancouver — A8LK5 — position and weather

sailwx.info

Track history (hours):
 
Tides and Currents Weather Stations Pressure Air Temp Water Temp Dewpoint Dewpoint Depression Visibility Wind Speed Wind Dir Waves Ship Positions

Zim Vancouver

Last reported at 2017-Feb-17 17:19 UTC. Time now 2017-Feb-20 14:00 UTC.
Position N 30°60' E 122°28'.

Length 260 m; draft 7.1 m.

Type: Ship. MMSI: 636013214.

Date/timePositionNaut miles runAvg speedWind from/ knotsBaromVisibWave heightAir tempDewpointWater temp
2017-Feb-17 17:19N 30°60' E 122°28'1114.2
2017-Feb-17 16:33N 31°02' E 122°15'9 9.1
2017-Feb-17 15:32N 31°04' E 122°05'9 9.2
2017-Feb-17 14:33N 31°08' E 121°55'8 8.0
2017-Feb-17 13:33N 31°13' E 121°48'3 2.8
2017-Feb-17 12:33N 31°11' E 121°51'6 5.7
2017-Feb-17 11:33N 31°15' E 121°46'9 8.9
2017-Feb-17 10:33N 31°21' E 121°39'7 7.5
2017-Feb-17 09:33N 31°25' E 121°31'6 6.3
2017-Feb-17 08:33N 31°29' E 121°26'10 9.8
2017-Feb-17 07:34N 31°29' E 121°37'9 8.7
2017-Feb-17 06:34N 31°34' E 121°29'2 2.0
2017-Feb-17 05:32N 31°36' E 121°27'0 0.0
2017-Feb-17 04:32N 31°36' E 121°27'0 0.0
2017-Feb-17 03:32N 31°36' E 121°27'0 0.0
2017-Feb-17 02:32N 31°36' E 121°27'0 0.0
2017-Feb-17 01:32N 31°36' E 121°27'0 0.0
2017-Feb-17 00:32N 31°36' E 121°27'0 0.0
2017-Feb-16 23:32N 31°36' E 121°27'0 0.0
2017-Feb-16 22:32N 31°36' E 121°27'0 0.0
2017-Feb-16 21:26N 31°36' E 121°27'0 0.0
2017-Feb-16 20:32N 31°36' E 121°27'0 0.0
2017-Feb-16 19:32N 31°36' E 121°27'0 0.0
2017-Feb-16 18:29N 31°36' E 121°27'0 0.0
2017-Feb-16 17:32N 31°36' E 121°27'0 0.0
2017-Feb-16 16:32N 31°36' E 121°27'0 0.0
2017-Feb-16 15:32N 31°36' E 121°27'0 0.0
2017-Feb-16 14:29N 31°36' E 121°27'0 0.0
2017-Feb-16 13:32N 31°36' E 121°27'0 0.0
2017-Feb-16 12:29N 31°36' E 121°27'0 0.0
2017-Feb-16 11:32N 31°36' E 121°27'0 0.0
2017-Feb-16 10:32N 31°36' E 121°27'0 0.0
2017-Feb-16 09:32N 31°36' E 121°27'0 0.0
2017-Feb-16 08:32N 31°36' E 121°27'0 0.0
2017-Feb-16 07:32N 31°36' E 121°27'0 0.0
2017-Feb-16 06:32N 31°36' E 121°27'0 0.0
2017-Feb-16 05:29N 31°36' E 121°27'0 0.0
2017-Feb-16 04:29N 31°36' E 121°27'0 0.0
2017-Feb-16 03:32N 31°36' E 121°27'0 0.0
2017-Feb-16 02:32N 31°36' E 121°27'0 0.0
2017-Feb-16 01:32N 31°36' E 121°27'0 0.0
2017-Feb-16 00:26N 31°36' E 121°27'0 0.0
2017-Feb-15 23:32N 31°36' E 121°27'0 0.0
2017-Feb-15 22:32N 31°36' E 121°27'0 0.0
2017-Feb-15 21:29N 31°36' E 121°27'0 0.0
2017-Feb-15 20:32N 31°36' E 121°27'0 0.0
2017-Feb-15 19:32N 31°36' E 121°27'0 0.0
2017-Feb-15 18:29N 31°36' E 121°27'0 0.0
2017-Feb-15 17:32N 31°36' E 121°27'0 0.0
2017-Feb-15 16:32N 31°36' E 121°27'0 0.0
2017-Feb-15 15:32N 31°36' E 121°27'0 0.0
2017-Feb-15 14:32N 31°36' E 121°27'0 0.0
2017-Feb-15 13:32N 31°36' E 121°27'0 0.0
2017-Feb-15 12:32N 31°36' E 121°27'0 0.0
2017-Feb-15 11:32N 31°36' E 121°27'0 0.0
2017-Feb-15 10:29N 31°36' E 121°27'0 0.0
2017-Feb-15 09:32N 31°36' E 121°27'0 0.0
2017-Feb-15 08:32N 31°36' E 121°27'0 0.0
2017-Feb-15 07:29N 31°36' E 121°27'0 0.0
2017-Feb-15 06:26N 31°36' E 121°27'0 0.0
2017-Feb-15 05:32N 31°36' E 121°27'0 0.0
2017-Feb-15 04:32N 31°36' E 121°27'0 0.0
2017-Feb-15 03:32N 31°36' E 121°27'0 0.0
2017-Feb-15 02:29N 31°36' E 121°27'0 0.0
2017-Feb-15 01:29N 31°36' E 121°27'0 0.0
2017-Feb-15 00:32N 31°36' E 121°27'0 0.0
2017-Feb-14 23:32N 31°36' E 121°27'0 0.0
2017-Feb-14 22:32N 31°36' E 121°27'0 0.0
2017-Feb-14 21:32N 31°36' E 121°27'0 0.0
2017-Feb-14 20:32N 31°36' E 121°27'0 0.0
2017-Feb-14 19:32N 31°36' E 121°27'0 0.0
2017-Feb-14 18:29N 31°36' E 121°27'0 0.2
2017-Feb-14 17:29N 31°35' E 121°27'0 0.2
2017-Feb-14 16:32N 31°35' E 121°27'0 0.0
2017-Feb-14 15:32N 31°35' E 121°27'0 0.0
2017-Feb-14 14:32N 31°35' E 121°27'0 0.0
2017-Feb-14 13:29N 31°35' E 121°27'0 0.0
2017-Feb-14 12:32N 31°35' E 121°27'0 0.0
2017-Feb-14 11:29N 31°35' E 121°27'0 0.0
2017-Feb-14 10:32N 31°35' E 121°27'0 0.0
2017-Feb-14 09:29N 31°35' E 121°27'0 0.0
2017-Feb-14 08:32N 31°35' E 121°27'0 0.0
2017-Feb-14 07:32N 31°35' E 121°27'0 0.0
2017-Feb-14 06:29N 31°35' E 121°27'0 0.0
2017-Feb-14 05:32N 31°35' E 121°27'0 0.0
2017-Feb-14 04:23N 31°35' E 121°27'0 0.0
2017-Feb-14 03:28N 31°35' E 121°27'0 0.0
2017-Feb-14 02:28N 31°35' E 121°27'0 0.0
2017-Feb-14 01:31N 31°35' E 121°27'0 0.0
2017-Feb-14 00:31N 31°35' E 121°27'0 0.1
2017-Feb-13 23:31N 31°35' E 121°27'0 0.1
2017-Feb-13 22:31N 31°35' E 121°27'0 0.0
2017-Feb-13 21:31N 31°35' E 121°27'0 0.0
2017-Feb-13 20:31N 31°35' E 121°27'0 0.0
2017-Feb-13 19:31N 31°35' E 121°27'0 0.0
2017-Feb-13 18:31N 31°35' E 121°27'0 0.0
2017-Feb-13 17:31N 31°35' E 121°27'0 0.0
2017-Feb-13 16:31N 31°35' E 121°27'0 0.0
2017-Feb-13 15:31N 31°35' E 121°27'0 0.0
2017-Feb-13 14:31N 31°35' E 121°27'0 0.0
2017-Feb-13 13:31N 31°35' E 121°27'0 0.0
2017-Feb-13 12:31N 31°35' E 121°27'0 0.0
2017-Feb-13 11:31N 31°35' E 121°27'0 0.0
2017-Feb-13 10:31N 31°35' E 121°27'0 0.0
2017-Feb-13 09:31N 31°35' E 121°27'0 0.0
2017-Feb-13 08:31N 31°35' E 121°27'0 0.0
2017-Feb-13 07:28N 31°35' E 121°27'0 0.0
2017-Feb-13 06:31N 31°35' E 121°27'0 0.0
2017-Feb-13 05:31N 31°35' E 121°27'0 0.0
2017-Feb-13 04:31N 31°35' E 121°27'0 0.0
2017-Feb-13 03:31N 31°35' E 121°27'0 0.0
2017-Feb-13 02:31N 31°35' E 121°27'0 0.0
2017-Feb-13 01:31N 31°35' E 121°27'0 0.0
2017-Feb-13 00:31N 31°35' E 121°27'0 0.0
2017-Feb-12 23:31N 31°35' E 121°27'0 0.0
2017-Feb-12 22:28N 31°35' E 121°27'0 0.0
2017-Feb-12 21:31N 31°35' E 121°27'0 0.0
2017-Feb-12 20:31N 31°35' E 121°27'0 0.0
2017-Feb-12 19:31N 31°35' E 121°27'0 0.0
2017-Feb-12 18:32N 31°35' E 121°27'0 0.0
2017-Feb-12 17:31N 31°35' E 121°27'0 0.0
2017-Feb-12 16:32N 31°35' E 121°27'0 0.0
2017-Feb-12 15:31N 31°35' E 121°27'0 0.0
2017-Feb-12 14:32N 31°35' E 121°27'0 0.0
2017-Feb-12 13:32N 31°35' E 121°27'0 0.0
2017-Feb-12 12:31N 31°35' E 121°27'0 0.0
2017-Feb-12 11:31N 31°35' E 121°27'0 0.0
2017-Feb-12 10:28N 31°35' E 121°27'0 0.0
2017-Feb-12 09:31N 31°35' E 121°27'0 0.0
2017-Feb-12 08:31N 31°35' E 121°27'0 0.0
2017-Feb-12 07:31N 31°35' E 121°27'0 0.0
2017-Feb-12 06:31N 31°35' E 121°27'0 0.0
2017-Feb-12 05:31N 31°35' E 121°27'0 0.0
2017-Feb-12 04:31N 31°35' E 121°27'0 0.0
2017-Feb-12 03:32N 31°35' E 121°27'0 0.0
2017-Feb-12 02:31N 31°35' E 121°27'0 0.0
2017-Feb-12 01:31N 31°35' E 121°27'0 0.0
2017-Feb-12 00:32N 31°35' E 121°27'0 0.0
2017-Feb-11 23:31N 31°35' E 121°27'0 0.0
2017-Feb-11 22:31N 31°35' E 121°27'0 0.0
2017-Feb-11 21:31N 31°35' E 121°27'0 0.0
2017-Feb-11 20:31N 31°35' E 121°27'0 0.0
2017-Feb-11 19:31N 31°35' E 121°27'0 0.0
2017-Feb-11 18:32N 31°35' E 121°27'0 0.0
2017-Feb-11 17:31N 31°35' E 121°27'0 0.0
2017-Feb-11 16:31N 31°35' E 121°27'0 0.0
2017-Feb-11 15:31N 31°35' E 121°27'0 0.0
2017-Feb-11 14:31N 31°35' E 121°27'0 0.0
2017-Feb-11 13:31N 31°35' E 121°27'0 0.0
2017-Feb-11 12:31N 31°35' E 121°27'0 0.0
2017-Feb-11 11:31N 31°35' E 121°27'0 0.0
2017-Feb-11 10:31N 31°35' E 121°27'0 0.0
2017-Feb-11 09:31N 31°35' E 121°27'0 0.0
2017-Feb-11 08:31N 31°35' E 121°27'0 0.0
2017-Feb-11 07:31N 31°35' E 121°27'0 0.0
2017-Feb-11 06:31N 31°35' E 121°27'0 0.0
2017-Feb-11 05:31N 31°35' E 121°27'0 0.0
2017-Feb-11 04:31N 31°35' E 121°27'0 0.0
2017-Feb-11 03:28N 31°35' E 121°27'0 0.0
2017-Feb-11 02:28N 31°35' E 121°27'0 0.0
2017-Feb-11 01:31N 31°35' E 121°27'0 0.0
2017-Feb-11 00:28N 31°35' E 121°27'0 0.0
2017-Feb-10 23:31N 31°35' E 121°27'0 0.0
2017-Feb-10 22:31N 31°35' E 121°27'0 0.0
2017-Feb-10 21:31N 31°35' E 121°27'0 0.0
2017-Feb-10 20:31N 31°35' E 121°27'0 0.0
2017-Feb-10 19:28N 31°35' E 121°27'0 0.0
2017-Feb-10 18:28N 31°35' E 121°27'0 0.0
2017-Feb-10 17:31N 31°35' E 121°27'0 0.0
2017-Feb-10 16:31N 31°35' E 121°27'0 0.0
2017-Feb-10 15:28N 31°35' E 121°27'0 0.0
2017-Feb-10 14:31N 31°35' E 121°27'0 0.0
2017-Feb-10 13:31N 31°35' E 121°27'0 0.0
2017-Feb-10 12:31N 31°35' E 121°27'0 0.0
2017-Feb-10 11:31N 31°35' E 121°27'0 0.0
2017-Feb-10 10:31N 31°35' E 121°27'0 0.0
2017-Feb-10 09:31N 31°35' E 121°27'0 0.0
2017-Feb-10 08:31N 31°35' E 121°27'0 0.0
2017-Feb-10 07:31N 31°35' E 121°27'0 0.0
2017-Feb-10 06:31N 31°35' E 121°27'0 0.0
2017-Feb-10 05:31N 31°35' E 121°27'0 0.0
2017-Feb-10 04:28N 31°35' E 121°27'0 0.0
2017-Feb-10 03:25N 31°35' E 121°27'0 0.0
2017-Feb-10 02:31N 31°35' E 121°27'0 0.0
2017-Feb-10 01:31N 31°35' E 121°27'0 0.0
2017-Feb-10 00:31N 31°35' E 121°27'0 0.0
2017-Feb-09 23:31N 31°35' E 121°27'0 0.0
2017-Feb-09 22:31N 31°35' E 121°27'0 0.0
2017-Feb-09 21:31N 31°35' E 121°27'0 0.0
2017-Feb-09 20:31N 31°35' E 121°27'0 0.0
2017-Feb-09 19:31N 31°35' E 121°27'0 0.0
2017-Feb-09 18:31N 31°35' E 121°27'0 0.0
2017-Feb-09 17:31N 31°35' E 121°27'0 0.0
2017-Feb-09 16:31N 31°35' E 121°27'0 0.0
2017-Feb-09 15:31N 31°35' E 121°27'0 0.0
2017-Feb-09 14:31N 31°35' E 121°27'0 0.0
2017-Feb-09 13:22N 31°35' E 121°27'0 0.0
2017-Feb-09 12:28N 31°35' E 121°27'0 0.0
2017-Feb-09 11:31N 31°35' E 121°27'0 0.0
2017-Feb-09 10:31N 31°35' E 121°27'0 0.0
2017-Feb-09 09:31N 31°35' E 121°27'0 0.0
2017-Feb-09 08:28N 31°35' E 121°27'0 0.0
2017-Feb-09 07:28N 31°35' E 121°27'0 0.0
2017-Feb-09 06:31N 31°35' E 121°27'0 0.0
2017-Feb-09 05:31N 31°35' E 121°27'0 0.0
2017-Feb-09 04:31N 31°35' E 121°27'0 0.0
2017-Feb-09 03:31N 31°35' E 121°27'0 0.0
2017-Feb-09 02:31N 31°35' E 121°27'0 0.0
2017-Feb-09 01:31N 31°35' E 121°27'0 0.0
2017-Feb-09 00:31N 31°35' E 121°27'0 0.0
2017-Feb-08 23:31N 31°35' E 121°27'0 0.0
2017-Feb-08 22:28N 31°35' E 121°27'0 0.0
2017-Feb-08 21:31N 31°35' E 121°27'0 0.0
2017-Feb-08 20:31N 31°35' E 121°27'0 0.0
2017-Feb-08 19:31N 31°35' E 121°27'0 0.0
2017-Feb-08 18:31N 31°35' E 121°27'0 0.0
2017-Feb-08 17:31N 31°35' E 121°27'0 0.0
2017-Feb-08 16:31N 31°35' E 121°27'0 0.0
2017-Feb-08 15:31N 31°35' E 121°27'0 0.0
2017-Feb-08 14:31N 31°35' E 121°27'0 0.0
2017-Feb-08 13:28N 31°35' E 121°27'0 0.0
2017-Feb-08 12:31N 31°35' E 121°27'0 0.0
2017-Feb-08 11:31N 31°35' E 121°27'0 0.0
2017-Feb-08 10:31N 31°35' E 121°27'0 0.0
2017-Feb-08 09:31N 31°35' E 121°27'0 0.0
2017-Feb-08 08:31N 31°35' E 121°27'0 0.0
2017-Feb-08 07:31N 31°35' E 121°27'0 0.0
2017-Feb-08 06:31N 31°35' E 121°27'0 0.0
2017-Feb-08 05:28N 31°35' E 121°27'0 0.0
2017-Feb-08 04:31N 31°35' E 121°27'0 0.0
2017-Feb-08 03:31N 31°35' E 121°27'0 0.0
2017-Feb-08 02:31N 31°35' E 121°27'1 0.6
2017-Feb-08 01:31N 31°36' E 121°27'0 0.0
2017-Feb-08 00:31N 31°36' E 121°27'0 0.0
2017-Feb-07 23:31N 31°36' E 121°27'0 0.0
2017-Feb-07 22:31N 31°36' E 121°27'0 0.0
2017-Feb-07 21:31N 31°36' E 121°27'0 0.0
2017-Feb-07 20:31N 31°36' E 121°27'0 0.0
2017-Feb-07 19:31N 31°36' E 121°27'0 0.0
2017-Feb-07 18:31N 31°36' E 121°27'0 0.0
2017-Feb-07 17:28N 31°36' E 121°27'  
Track history (hours):
 
Tides and Currents Weather Stations Pressure Air Temp Water Temp Dewpoint Dewpoint Depression Visibility Wind Speed Wind Dir Waves Ship Positions

Zim Vancouver

Last reported at 2017-Feb-17 17:19 UTC. Time now 2017-Feb-20 14:00 UTC.
Position N 30°60' E 122°28'.

Length 260 m; draft 7.1 m.

Type: Ship. MMSI: 636013214.

Date/timePositionNaut miles runAvg speedWind from/ knotsBaromVisibWave heightAir tempDewpointWater temp
2017-Feb-17 17:19N 30°60' E 122°28'1114.2
2017-Feb-17 16:33N 31°02' E 122°15'9 9.1
2017-Feb-17 15:32N 31°04' E 122°05'9 9.2
2017-Feb-17 14:33N 31°08' E 121°55'8 8.0
2017-Feb-17 13:33N 31°13' E 121°48'3 2.8
2017-Feb-17 12:33N 31°11' E 121°51'6 5.7
2017-Feb-17 11:33N 31°15' E 121°46'9 8.9
2017-Feb-17 10:33N 31°21' E 121°39'7 7.5
2017-Feb-17 09:33N 31°25' E 121°31'6 6.3
2017-Feb-17 08:33N 31°29' E 121°26'10 9.8
2017-Feb-17 07:34N 31°29' E 121°37'9 8.7
2017-Feb-17 06:34N 31°34' E 121°29'2 2.0
2017-Feb-17 05:32N 31°36' E 121°27'0 0.0
2017-Feb-17 04:32N 31°36' E 121°27'0 0.0
2017-Feb-17 03:32N 31°36' E 121°27'0 0.0
2017-Feb-17 02:32N 31°36' E 121°27'0 0.0
2017-Feb-17 01:32N 31°36' E 121°27'0 0.0
2017-Feb-17 00:32N 31°36' E 121°27'0 0.0
2017-Feb-16 23:32N 31°36' E 121°27'0 0.0
2017-Feb-16 22:32N 31°36' E 121°27'0 0.0
2017-Feb-16 21:26N 31°36' E 121°27'0 0.0
2017-Feb-16 20:32N 31°36' E 121°27'0 0.0
2017-Feb-16 19:32N 31°36' E 121°27'0 0.0
2017-Feb-16 18:29N 31°36' E 121°27'0 0.0
2017-Feb-16 17:32N 31°36' E 121°27'0 0.0
2017-Feb-16 16:32N 31°36' E 121°27'0 0.0
2017-Feb-16 15:32N 31°36' E 121°27'0 0.0
2017-Feb-16 14:29N 31°36' E 121°27'0 0.0
2017-Feb-16 13:32N 31°36' E 121°27'0 0.0
2017-Feb-16 12:29N 31°36' E 121°27'0 0.0
2017-Feb-16 11:32N 31°36' E 121°27'0 0.0
2017-Feb-16 10:32N 31°36' E 121°27'0 0.0
2017-Feb-16 09:32N 31°36' E 121°27'0 0.0
2017-Feb-16 08:32N 31°36' E 121°27'0 0.0
2017-Feb-16 07:32N 31°36' E 121°27'0 0.0
2017-Feb-16 06:32N 31°36' E 121°27'0 0.0
2017-Feb-16 05:29N 31°36' E 121°27'0 0.0
2017-Feb-16 04:29N 31°36' E 121°27'0 0.0
2017-Feb-16 03:32N 31°36' E 121°27'0 0.0
2017-Feb-16 02:32N 31°36' E 121°27'0 0.0
2017-Feb-16 01:32N 31°36' E 121°27'0 0.0
2017-Feb-16 00:26N 31°36' E 121°27'0 0.0
2017-Feb-15 23:32N 31°36' E 121°27'0 0.0
2017-Feb-15 22:32N 31°36' E 121°27'0 0.0
2017-Feb-15 21:29N 31°36' E 121°27'0 0.0
2017-Feb-15 20:32N 31°36' E 121°27'0 0.0
2017-Feb-15 19:32N 31°36' E 121°27'0 0.0
2017-Feb-15 18:29N 31°36' E 121°27'0 0.0
2017-Feb-15 17:32N 31°36' E 121°27'0 0.0
2017-Feb-15 16:32N 31°36' E 121°27'0 0.0
2017-Feb-15 15:32N 31°36' E 121°27'0 0.0
2017-Feb-15 14:32N 31°36' E 121°27'0 0.0
2017-Feb-15 13:32N 31°36' E 121°27'0 0.0
2017-Feb-15 12:32N 31°36' E 121°27'0 0.0
2017-Feb-15 11:32N 31°36' E 121°27'0 0.0
2017-Feb-15 10:29N 31°36' E 121°27'0 0.0
2017-Feb-15 09:32N 31°36' E 121°27'0 0.0
2017-Feb-15 08:32N 31°36' E 121°27'0 0.0
2017-Feb-15 07:29N 31°36' E 121°27'0 0.0
2017-Feb-15 06:26N 31°36' E 121°27'0 0.0
2017-Feb-15 05:32N 31°36' E 121°27'0 0.0
2017-Feb-15 04:32N 31°36' E 121°27'0 0.0
2017-Feb-15 03:32N 31°36' E 121°27'0 0.0
2017-Feb-15 02:29N 31°36' E 121°27'0 0.0
2017-Feb-15 01:29N 31°36' E 121°27'0 0.0
2017-Feb-15 00:32N 31°36' E 121°27'0 0.0
2017-Feb-14 23:32N 31°36' E 121°27'0 0.0
2017-Feb-14 22:32N 31°36' E 121°27'0 0.0
2017-Feb-14 21:32N 31°36' E 121°27'0 0.0
2017-Feb-14 20:32N 31°36' E 121°27'0 0.0
2017-Feb-14 19:32N 31°36' E 121°27'0 0.0
2017-Feb-14 18:29N 31°36' E 121°27'0 0.2
2017-Feb-14 17:29N 31°35' E 121°27'0 0.2
2017-Feb-14 16:32N 31°35' E 121°27'0 0.0
2017-Feb-14 15:32N 31°35' E 121°27'0 0.0
2017-Feb-14 14:32N 31°35' E 121°27'0 0.0
2017-Feb-14 13:29N 31°35' E 121°27'0 0.0
2017-Feb-14 12:32N 31°35' E 121°27'0 0.0
2017-Feb-14 11:29N 31°35' E 121°27'0 0.0
2017-Feb-14 10:32N 31°35' E 121°27'0 0.0
2017-Feb-14 09:29N 31°35' E 121°27'0 0.0
2017-Feb-14 08:32N 31°35' E 121°27'0 0.0
2017-Feb-14 07:32N 31°35' E 121°27'0 0.0
2017-Feb-14 06:29N 31°35' E 121°27'0 0.0
2017-Feb-14 05:32N 31°35' E 121°27'0 0.0
2017-Feb-14 04:23N 31°35' E 121°27'0 0.0
2017-Feb-14 03:28N 31°35' E 121°27'0 0.0
2017-Feb-14 02:28N 31°35' E 121°27'0 0.0
2017-Feb-14 01:31N 31°35' E 121°27'0 0.0
2017-Feb-14 00:31N 31°35' E 121°27'0 0.1
2017-Feb-13 23:31N 31°35' E 121°27'0 0.1
2017-Feb-13 22:31N 31°35' E 121°27'0 0.0
2017-Feb-13 21:31N 31°35' E 121°27'0 0.0
2017-Feb-13 20:31N 31°35' E 121°27'0 0.0
2017-Feb-13 19:31N 31°35' E 121°27'0 0.0
2017-Feb-13 18:31N 31°35' E 121°27'0 0.0
2017-Feb-13 17:31N 31°35' E 121°27'0 0.0
2017-Feb-13 16:31N 31°35' E 121°27'0 0.0
2017-Feb-13 15:31N 31°35' E 121°27'0 0.0
2017-Feb-13 14:31N 31°35' E 121°27'0 0.0
2017-Feb-13 13:31N 31°35' E 121°27'0 0.0
2017-Feb-13 12:31N 31°35' E 121°27'0 0.0
2017-Feb-13 11:31N 31°35' E 121°27'0 0.0
2017-Feb-13 10:31N 31°35' E 121°27'0 0.0
2017-Feb-13 09:31N 31°35' E 121°27'0 0.0
2017-Feb-13 08:31N 31°35' E 121°27'0 0.0
2017-Feb-13 07:28N 31°35' E 121°27'0 0.0
2017-Feb-13 06:31N 31°35' E 121°27'0 0.0
2017-Feb-13 05:31N 31°35' E 121°27'0 0.0
2017-Feb-13 04:31N 31°35' E 121°27'0 0.0
2017-Feb-13 03:31N 31°35' E 121°27'0 0.0
2017-Feb-13 02:31N 31°35' E 121°27'0 0.0
2017-Feb-13 01:31N 31°35' E 121°27'0 0.0
2017-Feb-13 00:31N 31°35' E 121°27'0 0.0
2017-Feb-12 23:31N 31°35' E 121°27'0 0.0
2017-Feb-12 22:28N 31°35' E 121°27'0 0.0
2017-Feb-12 21:31N 31°35' E 121°27'0 0.0
2017-Feb-12 20:31N 31°35' E 121°27'0 0.0
2017-Feb-12 19:31N 31°35' E 121°27'0 0.0
2017-Feb-12 18:32N 31°35' E 121°27'0 0.0
2017-Feb-12 17:31N 31°35' E 121°27'0 0.0
2017-Feb-12 16:32N 31°35' E 121°27'0 0.0
2017-Feb-12 15:31N 31°35' E 121°27'0 0.0
2017-Feb-12 14:32N 31°35' E 121°27'0 0.0
2017-Feb-12 13:32N 31°35' E 121°27'0 0.0
2017-Feb-12 12:31N 31°35' E 121°27'0 0.0
2017-Feb-12 11:31N 31°35' E 121°27'0 0.0
2017-Feb-12 10:28N 31°35' E 121°27'0 0.0
2017-Feb-12 09:31N 31°35' E 121°27'0 0.0
2017-Feb-12 08:31N 31°35' E 121°27'0 0.0
2017-Feb-12 07:31N 31°35' E 121°27'0 0.0
2017-Feb-12 06:31N 31°35' E 121°27'0 0.0
2017-Feb-12 05:31N 31°35' E 121°27'0 0.0
2017-Feb-12 04:31N 31°35' E 121°27'0 0.0
2017-Feb-12 03:32N 31°35' E 121°27'0 0.0
2017-Feb-12 02:31N 31°35' E 121°27'0 0.0
2017-Feb-12 01:31N 31°35' E 121°27'0 0.0
2017-Feb-12 00:32N 31°35' E 121°27'0 0.0
2017-Feb-11 23:31N 31°35' E 121°27'0 0.0
2017-Feb-11 22:31N 31°35' E 121°27'0 0.0
2017-Feb-11 21:31N 31°35' E 121°27'0 0.0
2017-Feb-11 20:31N 31°35' E 121°27'0 0.0
2017-Feb-11 19:31N 31°35' E 121°27'0 0.0
2017-Feb-11 18:32N 31°35' E 121°27'0 0.0
2017-Feb-11 17:31N 31°35' E 121°27'0 0.0
2017-Feb-11 16:31N 31°35' E 121°27'0 0.0
2017-Feb-11 15:31N 31°35' E 121°27'0 0.0
2017-Feb-11 14:31N 31°35' E 121°27'0 0.0
2017-Feb-11 13:31N 31°35' E 121°27'0 0.0
2017-Feb-11 12:31N 31°35' E 121°27'0 0.0
2017-Feb-11 11:31N 31°35' E 121°27'0 0.0
2017-Feb-11 10:31N 31°35' E 121°27'0 0.0
2017-Feb-11 09:31N 31°35' E 121°27'0 0.0
2017-Feb-11 08:31N 31°35' E 121°27'0 0.0
2017-Feb-11 07:31N 31°35' E 121°27'0 0.0
2017-Feb-11 06:31N 31°35' E 121°27'0 0.0
2017-Feb-11 05:31N 31°35' E 121°27'0 0.0
2017-Feb-11 04:31N 31°35' E 121°27'0 0.0
2017-Feb-11 03:28N 31°35' E 121°27'0 0.0
2017-Feb-11 02:28N 31°35' E 121°27'0 0.0
2017-Feb-11 01:31N 31°35' E 121°27'0 0.0
2017-Feb-11 00:28N 31°35' E 121°27'0 0.0
2017-Feb-10 23:31N 31°35' E 121°27'0 0.0
2017-Feb-10 22:31N 31°35' E 121°27'0 0.0
2017-Feb-10 21:31N 31°35' E 121°27'0 0.0
2017-Feb-10 20:31N 31°35' E 121°27'0 0.0
2017-Feb-10 19:28N 31°35' E 121°27'0 0.0
2017-Feb-10 18:28N 31°35' E 121°27'0 0.0
2017-Feb-10 17:31N 31°35' E 121°27'0 0.0
2017-Feb-10 16:31N 31°35' E 121°27'0 0.0
2017-Feb-10 15:28N 31°35' E 121°27'0 0.0
2017-Feb-10 14:31N 31°35' E 121°27'0 0.0
2017-Feb-10 13:31N 31°35' E 121°27'0 0.0
2017-Feb-10 12:31N 31°35' E 121°27'0 0.0
2017-Feb-10 11:31N 31°35' E 121°27'0 0.0
2017-Feb-10 10:31N 31°35' E 121°27'0 0.0
2017-Feb-10 09:31N 31°35' E 121°27'0 0.0
2017-Feb-10 08:31N 31°35' E 121°27'0 0.0
2017-Feb-10 07:31N 31°35' E 121°27'0 0.0
2017-Feb-10 06:31N 31°35' E 121°27'0 0.0
2017-Feb-10 05:31N 31°35' E 121°27'0 0.0
2017-Feb-10 04:28N 31°35' E 121°27'0 0.0
2017-Feb-10 03:25N 31°35' E 121°27'0 0.0
2017-Feb-10 02:31N 31°35' E 121°27'0 0.0
2017-Feb-10 01:31N 31°35' E 121°27'0 0.0
2017-Feb-10 00:31N 31°35' E 121°27'0 0.0
2017-Feb-09 23:31N 31°35' E 121°27'0 0.0
2017-Feb-09 22:31N 31°35' E 121°27'0 0.0
2017-Feb-09 21:31N 31°35' E 121°27'0 0.0
2017-Feb-09 20:31N 31°35' E 121°27'0 0.0
2017-Feb-09 19:31N 31°35' E 121°27'0 0.0
2017-Feb-09 18:31N 31°35' E 121°27'0 0.0
2017-Feb-09 17:31N 31°35' E 121°27'0 0.0
2017-Feb-09 16:31N 31°35' E 121°27'0 0.0
2017-Feb-09 15:31N 31°35' E 121°27'0 0.0
2017-Feb-09 14:31N 31°35' E 121°27'0 0.0
2017-Feb-09 13:22N 31°35' E 121°27'0 0.0
2017-Feb-09 12:28N 31°35' E 121°27'0 0.0
2017-Feb-09 11:31N 31°35' E 121°27'0 0.0
2017-Feb-09 10:31N 31°35' E 121°27'0 0.0
2017-Feb-09 09:31N 31°35' E 121°27'0 0.0
2017-Feb-09 08:28N 31°35' E 121°27'0 0.0
2017-Feb-09 07:28N 31°35' E 121°27'0 0.0
2017-Feb-09 06:31N 31°35' E 121°27'0 0.0
2017-Feb-09 05:31N 31°35' E 121°27'0 0.0
2017-Feb-09 04:31N 31°35' E 121°27'0 0.0
2017-Feb-09 03:31N 31°35' E 121°27'0 0.0
2017-Feb-09 02:31N 31°35' E 121°27'0 0.0
2017-Feb-09 01:31N 31°35' E 121°27'0 0.0
2017-Feb-09 00:31N 31°35' E 121°27'0 0.0
2017-Feb-08 23:31N 31°35' E 121°27'0 0.0
2017-Feb-08 22:28N 31°35' E 121°27'0 0.0
2017-Feb-08 21:31N 31°35' E 121°27'0 0.0
2017-Feb-08 20:31N 31°35' E 121°27'0 0.0
2017-Feb-08 19:31N 31°35' E 121°27'0 0.0
2017-Feb-08 18:31N 31°35' E 121°27'0 0.0
2017-Feb-08 17:31N 31°35' E 121°27'0 0.0
2017-Feb-08 16:31N 31°35' E 121°27'0 0.0
2017-Feb-08 15:31N 31°35' E 121°27'0 0.0
2017-Feb-08 14:31N 31°35' E 121°27'0 0.0
2017-Feb-08 13:28N 31°35' E 121°27'0 0.0
2017-Feb-08 12:31N 31°35' E 121°27'0 0.0
2017-Feb-08 11:31N 31°35' E 121°27'0 0.0
2017-Feb-08 10:31N 31°35' E 121°27'0 0.0
2017-Feb-08 09:31N 31°35' E 121°27'0 0.0
2017-Feb-08 08:31N 31°35' E 121°27'0 0.0
2017-Feb-08 07:31N 31°35' E 121°27'0 0.0
2017-Feb-08 06:31N 31°35' E 121°27'0 0.0
2017-Feb-08 05:28N 31°35' E 121°27'0 0.0
2017-Feb-08 04:31N 31°35' E 121°27'0 0.0
2017-Feb-08 03:31N 31°35' E 121°27'0 0.0
2017-Feb-08 02:31N 31°35' E 121°27'1 0.6
2017-Feb-08 01:31N 31°36' E 121°27'0 0.0
2017-Feb-08 00:31N 31°36' E 121°27'0 0.0
2017-Feb-07 23:31N 31°36' E 121°27'0 0.0
2017-Feb-07 22:31N 31°36' E 121°27'0 0.0
2017-Feb-07 21:31N 31°36' E 121°27'0 0.0
2017-Feb-07 20:31N 31°36' E 121°27'0 0.0
2017-Feb-07 19:31N 31°36' E 121°27'0 0.0
2017-Feb-07 18:31N 31°36' E 121°27'0 0.0
2017-Feb-07 17:28N 31°36' E 121°27'  

Dump ship's entire track history